Time;durP1;ratioP1;P1;durP2;ratioP2;P2;SDS_P1;SDS_P2;PMS_P1;PMS_P2;Temp;Humidity;BMP_temperature;BMP_pressure;BME280_temperature;BME280_humidity;BME280_pressure;Samples;Min_cycle;Max_cycle;Signal;HPM_P1;HPM_P2
2022/08/19 00:02:16;;;;;;;11.40;10.23;;;;;;;;;;5052218;28;20031;-58
2022/08/19 00:05:05;;;;;;;11.70;10.10;;;;;;;;;;5051935;28;20619;-58
2022/08/19 00:10:49;;;;;;;11.15;9.93;;;;;;;;;;5050849;28;20123;-58
2022/08/19 00:13:21;;;;;;;10.95;9.80;;;;;;;;;;5050534;28;20032;-58
2022/08/19 00:15:54;;;;;;;11.13;9.90;;;;;;;;;;5050235;28;20115;-58
2022/08/19 00:21:14;;;;;;;13.68;11.18;;;;;;;;;;5051196;28;20521;-58
2022/08/19 00:23:43;;;;;;;13.65;11.00;;;;;;;;;;5050845;28;20037;-58
2022/08/19 00:26:15;;;;;;;13.23;10.65;;;;;;;;;;5050356;28;20498;-58
2022/08/19 00:29:11;;;;;;;;;;;;;;;;;;;;;
2022/08/19 00:31:43;;;;;;;12.00;10.35;;;;;;;;;;5054788;28;20028;-58
2022/08/19 00:34:30;;;;;;;12.57;10.25;;;;;;;;;;5055995;28;20111;-58
2022/08/19 00:37:09;;;;;;;12.00;10.90;;;;;;;;;;5055817;28;20126;-58
2022/08/19 00:39:45;;;;;;;14.35;11.88;;;;;;;;;;5054592;28;20632;-58
2022/08/19 00:42:17;;;;;;;14.63;11.90;;;;;;;;;;5055561;28;20055;-58
2022/08/19 00:44:50;;;;;;;11.48;10.27;;;;;;;;;;5054025;28;20032;-58
2022/08/19 00:47:19;;;;;;;13.45;11.75;;;;;;;;;;5055502;28;20064;-58
2022/08/19 00:50:27;;;;;;;12.53;11.20;;;;;;;;;;5054553;28;20025;-58
2022/08/19 00:53:06;;;;;;;12.70;10.73;;;;;;;;;;5053946;28;20608;-58
2022/08/19 00:55:36;;;;;;;12.38;10.85;;;;;;;;;;5053406;28;20055;-58
2022/08/19 00:58:12;;;;;;;13.45;10.77;;;;;;;;;;5054039;28;20544;-58
2022/08/19 01:00:50;;;;;;;13.55;11.48;;;;;;;;;;5054701;28;20029;-58
2022/08/19 01:06:26;;;;;;;12.23;10.98;;;;;;;;;;5055242;28;20033;-58
2022/08/19 01:09:14;;;;;;;12.95;11.65;;;;;;;;;;5069588;28;20033;-58
2022/08/19 01:11:46;;;;;;;11.70;10.50;;;;;;;;;;5054868;28;20037;-58
2022/08/19 01:14:21;;;;;;;11.48;10.27;;;;;;;;;;5054475;28;20028;-58
2022/08/19 01:16:55;;;;;;;14.00;12.18;;;;;;;;;;5070681;28;20613;-58
2022/08/19 01:19:36;;;;;;;12.63;11.23;;;;;;;;;;5063400;28;20044;-58
2022/08/19 01:22:04;;;;;;;;;;;;;;;;;;5055002;28;20578;-58
2022/08/19 01:24:49;;;;;;;11.65;10.45;;;;;;;;;;5053060;28;19908;-58
2022/08/19 01:30:15;;;;;;;13.48;11.95;;;;;;;;;;5053840;28;20494;-58
2022/08/19 01:32:49;;;;;;;13.07;11.07;;;;;;;;;;5051695;28;20131;-58
2022/08/19 01:35:18;;;;;;;12.63;10.45;;;;;;;;;;5054481;28;20033;-58
2022/08/19 01:38:00;;;;;;;14.10;10.77;;;;;;;;;;5054764;28;20028;-58
2022/08/19 01:40:34;;;;;;;13.88;12.38;;;;;;;;;;5054224;28;20085;-58
2022/08/19 01:43:13;;;;;;;12.45;10.90;;;;;;;;;;5068989;28;20017;-58
2022/08/19 01:45:52;;;;;;;12.30;10.85;;;;;;;;;;5054384;28;20017;-58
2022/08/19 01:48:21;;;;;;;14.82;12.13;;;;;;;;;;5070041;28;20059;-58
2022/08/19 01:51:02;;;;;;;16.33;10.73;;;;;;;;;;5068967;28;20024;-58
2022/08/19 01:56:24;;;;;;;13.18;11.02;;;;;;;;;;5054431;28;20048;-58
2022/08/19 01:59:05;;;;;;;13.23;11.68;;;;;;;;;;5068646;28;20402;-58
2022/08/19 02:01:54;;;;;;;14.80;11.93;;;;;;;;;;5054084;28;20067;-59
2022/08/19 02:04:31;;;;;;;;;;;;;;;;;;;;;
2022/08/19 02:07:07;;;;;;;13.27;11.80;;;;;;;;;;5053808;28;20047;-58
2022/08/19 02:15:31;;;;;;;12.90;11.55;;;;;;;;;;5054237;28;20505;-58
2022/08/19 02:18:15;;;;;;;15.77;11.90;;;;;;;;;;5054346;28;20083;-58
2022/08/19 02:21:16;;;;;;;13.77;11.63;;;;;;;;;;5052848;28;20021;-58
2022/08/19 02:23:49;;;;;;;12.77;11.48;;;;;;;;;;5054099;28;20033;-58
2022/08/19 02:26:21;;;;;;;14.98;13.50;;;;;;;;;;5054238;28;20056;-58
2022/08/19 02:29:02;;;;;;;14.50;12.95;;;;;;;;;;5053809;28;20432;-59
2022/08/19 02:34:20;;;;;;;17.23;13.77;;;;;;;;;;5054046;28;20037;-58
2022/08/19 02:36:49;;;;;;;13.27;11.90;;;;;;;;;;5053694;28;20035;-58
2022/08/19 02:39:16;;;;;;;18.33;13.17;;;;;;;;;;5053219;28;20017;-58
2022/08/19 02:41:51;;;;;;;15.32;13.68;;;;;;;;;;5053706;28;20021;-58
2022/08/19 02:44:23;;;;;;;16.27;14.38;;;;;;;;;;5053723;28;20021;-58
2022/08/19 02:47:01;;;;;;;20.73;13.90;;;;;;;;;;5053799;28;20061;-58
2022/08/19 02:49:30;;;;;;;14.52;12.70;;;;;;;;;;5052717;28;20021;-58
2022/08/19 02:51:57;;;;;;;18.45;14.55;;;;;;;;;;5053888;28;20024;-58
2022/08/19 02:54:27;;;;;;;15.63;14.02;;;;;;;;;;5053242;28;20033;-58
2022/08/19 02:56:53;;;;;;;17.50;14.40;;;;;;;;;;5053299;28;20028;-58
2022/08/19 02:59:29;;;;;;;17.02;14.35;;;;;;;;;;5052277;28;20029;-58
2022/08/19 03:01:58;;;;;;;17.42;12.52;;;;;;;;;;5053180;28;20028;-58
2022/08/19 03:04:33;;;;;;;22.13;15.25;;;;;;;;;;5053079;28;20025;-58
2022/08/19 03:07:13;;;;;;;17.73;15.73;;;;;;;;;;5068342;28;20017;-58
2022/08/19 03:09:45;;;;;;;17.25;13.75;;;;;;;;;;5052168;28;20017;-58
2022/08/19 03:12:24;;;;;;;18.95;16.88;;;;;;;;;;5052923;28;20071;-58
2022/08/19 03:15:01;;;;;;;;;;;;;;;;;;;;;
2022/08/19 03:17:31;;;;;;;19.25;15.73;;;;;;;;;;5052888;28;20028;-58
2022/08/19 03:19:57;;;;;;;19.35;16.08;;;;;;;;;;5052078;28;20021;-58
2022/08/19 03:22:59;;;;;;;17.48;15.45;;;;;;;;;;5052994;28;20379;-58
2022/08/19 03:25:28;;;;;;;18.63;15.52;;;;;;;;;;5052474;28;20017;-58
2022/08/19 03:28:16;;;;;;;23.10;17.10;;;;;;;;;;5053093;28;20071;-58
2022/08/19 03:30:52;;;;;;;17.88;15.85;;;;;;;;;;5046544;28;20646;-58
2022/08/19 03:33:24;;;;;;;21.25;17.10;;;;;;;;;;5051032;28;20386;-58
2022/08/19 03:36:21;;;;;;;20.73;16.88;;;;;;;;;;5052778;28;20033;-58
2022/08/19 03:38:51;;;;;;;19.92;16.92;;;;;;;;;;5049950;28;20517;-58
2022/08/19 03:41:21;;;;;;;21.33;16.42;;;;;;;;;;5051442;28;20025;-58
2022/08/19 03:43:55;;;;;;;22.95;17.80;;;;;;;;;;5052073;28;20364;-58
2022/08/19 03:46:52;;;;;;;20.48;18.00;;;;;;;;;;5046756;28;20063;-59
2022/08/19 03:49:23;;;;;;;20.02;17.85;;;;;;;;;;5040206;28;20116;-58
2022/08/19 03:52:07;;;;;;;;;;;;;;;;;;;;;
2022/08/19 03:54:37;;;;;;;21.60;17.45;;;;;;;;;;5045591;28;20478;-58
2022/08/19 04:00:11;;;;;;;19.55;16.42;;;;;;;;;;5044676;28;20067;-58
2022/08/19 04:02:41;;;;;;;21.50;18.27;;;;;;;;;;5045850;28;20048;-58
2022/08/19 04:05:13;;;;;;;21.45;17.55;;;;;;;;;;5048975;28;20071;-58
2022/08/19 04:07:55;;;;;;;;;;;;;;;;;;;;;
2022/08/19 04:10:34;;;;;;;21.65;17.13;;;;;;;;;;5050017;28;20045;-58
2022/08/19 04:13:24;;;;;;;21.95;17.95;;;;;;;;;;5050760;28;20090;-58
2022/08/19 04:15:59;;;;;;;23.42;19.95;;;;;;;;;;5048820;28;20029;-58
2022/08/19 04:21:22;;;;;;;20.73;18.65;;;;;;;;;;5049289;28;20055;-58
2022/08/19 04:32:44;;;;;;;23.45;18.67;;;;;;;;;;5048424;28;20546;-58
2022/08/19 04:35:28;;;;;;;22.98;20.02;;;;;;;;;;5044190;28;20021;-58
2022/08/19 04:38:07;;;;;;;23.23;19.45;;;;;;;;;;5048213;28;20025;-58
2022/08/19 04:43:48;;;;;;;20.52;18.23;;;;;;;;;;5046519;28;20107;-58
2022/08/19 04:49:16;;;;;;;22.65;19.33;;;;;;;;;;5043122;28;20406;-58
2022/08/19 04:51:52;;;;;;;21.85;19.55;;;;;;;;;;5049096;28;20131;-58
2022/08/19 04:54:22;;;;;;;23.25;19.50;;;;;;;;;;5048622;28;20033;-58
2022/08/19 04:57:03;;;;;;;23.70;19.58;;;;;;;;;;5048382;28;20025;-58
2022/08/19 04:59:33;;;;;;;20.65;18.35;;;;;;;;;;5048368;28;20037;-59
2022/08/19 05:02:12;;;;;;;22.77;20.47;;;;;;;;;;5041771;28;20029;-59
2022/08/19 05:05:02;;;;;;;22.20;19.15;;;;;;;;;;5047808;28;20401;-59
2022/08/19 05:07:46;;;;;;;25.05;19.90;;;;;;;;;;5065078;28;20025;-59
2022/08/19 05:10:28;;;;;;;21.10;18.75;;;;;;;;;;5045262;28;20032;-59
2022/08/19 05:12:57;;;;;;;21.88;19.55;;;;;;;;;;5043415;28;20075;-58
2022/08/19 05:15:29;;;;;;;24.70;20.45;;;;;;;;;;5048938;28;20059;-59
2022/08/19 05:23:49;;;;;;;20.75;18.52;;;;;;;;;;5049711;28;20078;-59
2022/08/19 05:29:32;;;;;;;21.88;19.58;;;;;;;;;;5050269;28;20025;-59
2022/08/19 05:31:59;;;;;;;24.70;18.90;;;;;;;;;;5050388;28;20040;-58
2022/08/19 05:34:51;;;;;;;20.73;17.95;;;;;;;;;;5052023;28;20021;-59
2022/08/19 05:37:29;;;;;;;24.75;19.88;;;;;;;;;;5051480;28;20124;-59
2022/08/19 05:40:04;;;;;;;21.73;19.23;;;;;;;;;;5047735;28;20025;-59
2022/08/19 05:42:36;;;;;;;23.67;19.00;;;;;;;;;;5051631;28;20028;-59
2022/08/19 05:45:12;;;;;;;24.05;19.80;;;;;;;;;;5067046;28;20025;-59
2022/08/19 05:47:39;;;;;;;20.25;18.00;;;;;;;;;;5066065;28;20111;-59
2022/08/19 05:50:17;;;;;;;21.23;18.10;;;;;;;;;;5051869;28;20410;-59
2022/08/19 05:52:47;;;;;;;20.77;18.33;;;;;;;;;;5066118;28;20037;-59
2022/08/19 05:55:13;;;;;;;21.77;19.55;;;;;;;;;;5050851;28;20025;-59
2022/08/19 05:57:43;;;;;;;21.92;19.63;;;;;;;;;;5051353;28;20436;-59
2022/08/19 06:00:19;;;;;;;23.35;19.67;;;;;;;;;;5047519;28;20033;-59
2022/08/19 06:02:45;;;;;;;22.10;18.77;;;;;;;;;;5051126;28;20052;-59
2022/08/19 06:05:37;;;;;;;;;;;;;;;;;;;;;
2022/08/19 06:08:09;;;;;;;21.92;18.60;;;;;;;;;;5047946;28;20839;-59
2022/08/19 06:10:41;;;;;;;21.27;19.05;;;;;;;;;;5049506;28;20055;-59
2022/08/19 06:13:25;;;;;;;23.05;20.58;;;;;;;;;;5065977;28;20059;-59
2022/08/19 06:16:27;;;;;;;24.48;19.10;;;;;;;;;;5048728;28;20390;-59
2022/08/19 06:18:57;;;;;;;20.50;17.98;;;;;;;;;;5049124;28;20428;-59
2022/08/19 06:21:26;;;;;;;22.70;19.15;;;;;;;;;;5051379;28;20348;-59
2022/08/19 06:24:02;;;;;;;26.60;19.60;;;;;;;;;;5049272;28;20037;-59
2022/08/19 06:26:55;;;;;;;22.17;19.20;;;;;;;;;;5049364;28;20032;-59
2022/08/19 06:29:38;;;;;;;21.45;18.58;;;;;;;;;;5045221;28;20111;-59
2022/08/19 06:32:15;;;;;;;;;;;;;;;;;;;;;
2022/08/19 06:34:57;;;;;;;21.25;18.98;;;;;;;;;;5049701;28;20368;-59
2022/08/19 06:40:43;;;;;;;26.33;21.27;;;;;;;;;;5074692;28;20605;-59
2022/08/19 06:43:27;;;;;;;22.92;20.05;;;;;;;;;;5072781;28;20543;-59
2022/08/19 06:45:58;;;;;;;22.45;19.90;;;;;;;;;;5049156;28;20033;-59
2022/08/19 06:48:35;;;;;;;27.90;20.58;;;;;;;;;;5049555;28;20040;-59
2022/08/19 06:51:22;;;;;;;24.08;20.73;;;;;;;;;;5047859;28;20032;-59
2022/08/19 06:53:49;;;;;;;25.58;20.15;;;;;;;;;;5049525;28;20523;-59
2022/08/19 06:56:22;;;;;;;25.05;21.75;;;;;;;;;;5059493;28;20025;-59
2022/08/19 06:58:52;;;;;;;24.85;21.60;;;;;;;;;;5048480;28;20494;-59
2022/08/19 07:01:26;;;;;;;24.67;20.75;;;;;;;;;;5065332;28;20031;-59
2022/08/19 07:04:20;;;;;;;24.75;21.40;;;;;;;;;;5049937;28;20020;-59
2022/08/19 07:06:55;;;;;;;28.13;21.30;;;;;;;;;;5049975;28;20443;-59
2022/08/19 07:09:39;;;;;;;22.55;19.50;;;;;;;;;;5048261;28;20025;-59
2022/08/19 07:12:39;;;;;;;27.20;21.95;;;;;;;;;;5048454;28;20043;-59
2022/08/19 07:15:23;;;;;;;23.08;20.42;;;;;;;;;;5049633;28;20028;-59
2022/08/19 07:18:27;;;;;;;23.05;20.42;;;;;;;;;;5047200;28;20426;-59
2022/08/19 07:21:12;;;;;;;25.58;20.60;;;;;;;;;;5048600;28;20414;-59
2022/08/19 07:23:42;;;;;;;23.80;21.30;;;;;;;;;;5049355;28;20588;-59
2022/08/19 07:26:43;;;;;;;21.85;19.58;;;;;;;;;;5049718;28;21233;-59
2022/08/19 07:32:12;;;;;;;23.00;20.58;;;;;;;;;;5040964;28;20080;-59
2022/08/19 07:35:00;;;;;;;27.83;22.15;;;;;;;;;;5049332;28;20024;-59
2022/08/19 07:37:44;;;;;;;24.42;20.38;;;;;;;;;;5050773;28;20068;-59
2022/08/19 07:40:21;;;;;;;24.02;19.67;;;;;;;;;;5039400;28;20100;-59
2022/08/19 07:42:56;;;;;;;22.63;20.17;;;;;;;;;;5047697;28;20406;-59
2022/08/19 07:45:25;;;;;;;28.67;21.77;;;;;;;;;;5039956;28;20507;-59
2022/08/19 07:48:33;;;;;;;24.83;20.47;;;;;;;;;;5046255;28;20025;-59
2022/08/19 07:51:16;;;;;;;23.75;17.88;;;;;;;;;;5043423;28;20108;-59
2022/08/19 07:53:50;;;;;;;21.80;19.45;;;;;;;;;;5044697;28;20031;-59
2022/08/19 07:56:22;;;;;;;23.83;21.25;;;;;;;;;;5046928;28;20036;-59
2022/08/19 08:02:17;;;;;;;25.42;21.88;;;;;;;;;;5046413;28;20037;-59
